Time;durP1;ratioP1;P1;durP2;ratioP2;P2;SDS_P1;SDS_P2;PMS_P1;PMS_P2;Temp;Humidity;BMP_temperature;BMP_pressure;BME280_temperature;BME280_humidity;BME280_pressure;Samples;Min_cycle;Max_cycle;Signal;HPM_P1;HPM_P2
2022/06/10 00:01:06;;;;;;;0.60;0.10;;;17.80;1.00;;;;;;5052847;28;20453;-69
2022/06/10 00:03:35;;;;;;;0.60;0.10;;;17.80;1.00;;;;;;5052367;28;20565;-69
2022/06/10 00:06:06;;;;;;;0.60;0.17;;;17.80;1.00;;;;;;5052496;28;20468;-72
2022/06/10 00:08:39;;;;;;;0.60;0.10;;;17.80;1.00;;;;;;5052249;28;20442;-69
2022/06/10 00:11:09;;;;;;;0.60;0.10;;;17.80;1.00;;;;;;5052118;28;20457;-69
2022/06/10 00:13:41;;;;;;;0.60;0.20;;;17.70;1.00;;;;;;5053130;28;20465;-69
2022/06/10 00:16:09;;;;;;;0.60;0.10;;;17.60;1.00;;;;;;5051767;28;20446;-69
2022/06/10 00:18:38;;;;;;;0.60;0.10;;;17.50;1.00;;;;;;5051630;28;20446;-68
2022/06/10 00:21:08;;;;;;;0.60;0.10;;;17.40;1.00;;;;;;5047799;28;20495;-68
2022/06/10 00:23:36;;;;;;;0.60;0.10;;;17.40;1.00;;;;;;5051022;28;20469;-69
2022/06/10 00:26:05;;;;;;;0.60;0.10;;;17.40;1.00;;;;;;5051922;28;20481;-69
2022/06/10 00:28:33;;;;;;;0.60;0.10;;;17.30;1.00;;;;;;5051595;28;20439;-68
2022/06/10 00:31:03;;;;;;;0.60;0.10;;;17.30;1.00;;;;;;5051713;28;20617;-67
2022/06/10 00:33:33;;;;;;;0.60;0.20;;;17.30;1.00;;;;;;5051541;28;20514;-68
2022/06/10 00:36:02;;;;;;;0.60;0.10;;;17.20;1.00;;;;;;5051786;28;20477;-69
2022/06/10 00:38:30;;;;;;;0.60;0.20;;;;;;;;;;5047274;28;21039;-68
2022/06/10 00:40:59;;;;;;;0.60;0.20;;;17.10;1.00;;;;;;5050414;28;20504;-69
2022/06/10 00:43:31;;;;;;;0.60;0.10;;;17.10;1.00;;;;;;5068347;23;20498;-71
2022/06/10 00:46:20;;;;;;;0.60;0.10;;;17.10;1.00;;;;;;5050719;28;20492;-69
2022/06/10 00:48:54;;;;;;;0.60;0.10;;;17.10;1.00;;;;;;5053144;28;20485;-70
2022/06/10 00:51:27;;;;;;;0.60;0.10;;;17.10;1.00;;;;;;5052934;28;20449;-69
2022/06/10 00:53:59;;;;;;;0.60;0.10;;;17.00;1.00;;;;;;5052835;28;20469;-69
2022/06/10 00:56:29;;;;;;;0.60;0.10;;;16.90;1.00;;;;;;5052428;28;20440;-70
2022/06/10 00:59:01;;;;;;;0.60;0.20;;;17.00;1.00;;;;;;5052794;28;20830;-70
2022/06/10 01:01:32;;;;;;;0.60;0.10;;;16.90;1.00;;;;;;5055634;28;20749;-70
2022/06/10 01:04:01;;;;;;;0.60;0.13;;;16.90;1.00;;;;;;5056092;28;20500;-70
2022/06/10 01:06:29;;;;;;;0.60;0.20;;;16.90;1.00;;;;;;5055719;28;20478;-71
2022/06/10 01:08:59;;;;;;;0.60;0.10;;;16.80;1.00;;;;;;5055163;28;20556;-69
2022/06/10 01:11:59;;;;;;;0.60;0.10;;;16.80;1.00;;;;;;5055723;28;20445;-70
2022/06/10 01:14:44;;;;;;;0.60;0.10;;;16.80;1.00;;;;;;5055384;28;20466;-70
2022/06/10 01:17:27;;;;;;;0.60;0.10;;;16.80;1.00;;;;;;5054987;28;20438;-70
2022/06/10 01:20:11;;;;;;;0.60;0.10;;;16.80;1.00;;;;;;5055943;28;20454;-70
2022/06/10 01:23:03;;;;;;;0.60;0.10;;;16.80;1.00;;;;;;5055168;28;20500;-71
2022/06/10 01:25:43;;;;;;;0.60;0.10;;;16.80;1.00;;;;;;5054714;28;20488;-70
2022/06/10 01:28:21;;;;;;;0.60;0.20;;;16.80;1.00;;;;;;5054924;28;20785;-72
2022/06/10 01:31:08;;;;;;;0.60;0.10;;;16.70;1.00;;;;;;5055394;28;20820;-71
2022/06/10 01:33:54;;;;;;;0.60;0.10;;;16.70;1.00;;;;;;5055079;28;20469;-69
2022/06/10 01:36:27;;;;;;;0.60;0.10;;;16.70;1.00;;;;;;5055006;28;20443;-70
2022/06/10 01:39:03;;;;;;;0.60;0.10;;;16.60;1.00;;;;;;5055326;28;20445;-70
2022/06/10 01:41:42;;;;;;;0.60;0.10;;;16.60;1.00;;;;;;5055602;28;20446;-70
2022/06/10 01:44:17;;;;;;;0.60;0.10;;;16.50;1.00;;;;;;5054650;28;20472;-71
2022/06/10 01:46:52;;;;;;;0.60;0.20;;;16.90;1.00;;;;;;5055458;28;20481;-69
2022/06/10 01:49:25;;;;;;;0.60;0.10;;;17.10;1.00;;;;;;5055357;28;20959;-71
2022/06/10 01:51:59;;;;;;;0.60;0.10;;;16.30;1.00;;;;;;5056073;28;20465;-71
2022/06/10 01:54:34;;;;;;;0.60;0.10;;;16.30;1.00;;;;;;5055468;28;20493;-69
2022/06/10 01:57:07;;;;;;;0.60;0.10;;;16.30;1.00;;;;;;5055086;28;20545;-71
2022/06/10 01:59:39;;;;;;;0.60;0.20;;;16.30;1.00;;;;;;5055264;28;20544;-70
2022/06/10 02:02:16;;;;;;;0.60;0.20;;;16.30;1.00;;;;;;5049836;28;20537;-70
2022/06/10 02:04:48;;;;;;;0.60;0.20;;;16.30;1.00;;;;;;5054480;28;20987;-71
2022/06/10 02:07:22;;;;;;;0.60;0.10;;;16.20;1.00;;;;;;5054064;28;20456;-70
2022/06/10 02:10:02;;;;;;;0.60;0.17;;;16.10;1.00;;;;;;5054259;28;20450;-70
2022/06/10 02:12:33;;;;;;;0.60;0.10;;;16.10;1.00;;;;;;5054175;28;20440;-71
2022/06/10 02:15:06;;;;;;;0.60;0.10;;;16.10;1.00;;;;;;5053810;28;20473;-69
2022/06/10 02:17:38;;;;;;;0.60;0.10;;;16.00;1.00;;;;;;5053342;28;20450;-70
2022/06/10 02:20:11;;;;;;;0.60;0.10;;;16.00;1.00;;;;;;5054186;28;20465;-69
2022/06/10 02:22:45;;;;;;;0.60;0.10;;;16.00;1.00;;;;;;5053576;28;20918;-71
2022/06/10 02:25:18;;;;;;;0.60;0.20;;;16.00;1.00;;;;;;5051401;28;20485;-73
2022/06/10 02:27:55;;;;;;;0.60;0.10;;;15.90;1.00;;;;;;5048414;28;20447;-69
2022/06/10 02:30:26;;;;;;;0.60;0.10;;;15.90;1.00;;;;;;5042450;28;20464;-72
2022/06/10 02:32:58;;;;;;;0.60;0.10;;;15.90;1.00;;;;;;5053229;28;20449;-71
2022/06/10 02:35:29;;;;;;;0.60;0.10;;;15.90;1.00;;;;;;5053506;28;20453;-70
2022/06/10 02:38:06;;;;;;;0.60;0.10;;;15.90;1.00;;;;;;5053408;28;20446;-71
2022/06/10 02:40:40;;;;;;;0.60;0.20;;;15.90;1.00;;;;;;5053724;28;20584;-69
2022/06/10 02:43:19;;;;;;;0.60;0.10;;;16.00;1.00;;;;;;5051534;28;20451;-69
2022/06/10 02:45:54;;;;;;;0.60;0.10;;;16.00;1.00;;;;;;5050778;28;20524;-68
2022/06/10 02:48:30;;;;;;;0.60;0.10;;;16.00;1.00;;;;;;5040684;28;20443;-69
2022/06/10 02:50:58;;;;;;;0.60;0.10;;;15.90;1.00;;;;;;5033739;28;20890;-69
2022/06/10 02:53:27;;;;;;;0.60;0.10;;;15.90;1.00;;;;;;5033483;28;20984;-71
2022/06/10 02:55:56;;;;;;;0.60;0.10;;;15.80;1.00;;;;;;5033263;28;20521;-69
2022/06/10 03:01:20;;;;;;;0.60;0.10;;;15.70;1.00;;;;;;5020430;28;20446;-68
2022/06/10 03:04:10;;;;;;;0.60;0.20;;;15.70;1.00;;;;;;5053782;28;20485;-69
2022/06/10 03:06:49;;;;;;;0.60;0.10;;;15.70;1.00;;;;;;5053012;28;20497;-71
2022/06/10 03:09:22;;;;;;;0.60;0.10;;;15.70;1.00;;;;;;5053369;28;20467;-69
2022/06/10 03:12:11;;;;;;;0.60;0.10;;;15.70;1.00;;;;;;5053004;28;20442;-68
2022/06/10 03:14:49;;;;;;;0.60;0.10;;;15.70;1.00;;;;;;5055514;28;20515;-69
2022/06/10 03:17:29;;;;;;;0.60;0.10;;;15.70;1.00;;;;;;5055907;28;20438;-68
2022/06/10 03:20:12;;;;;;;0.60;0.10;;;15.60;1.00;;;;;;5055877;28;20450;-71
2022/06/10 03:23:05;;;;;;;0.60;0.10;;;15.60;1.00;;;;;;5053420;28;20529;-70
2022/06/10 03:25:39;;;;;;;0.60;0.10;;;15.60;1.00;;;;;;5046536;28;20447;-69
2022/06/10 03:28:12;;;;;;;0.60;0.10;;;15.60;1.00;;;;;;5052795;28;20540;-71
2022/06/10 03:30:49;;;;;;;0.60;0.10;;;15.60;1.00;;;;;;5053186;28;20909;-69
2022/06/10 03:33:23;;;;;;;0.60;0.10;;;15.50;1.00;;;;;;5052924;28;20536;-70
2022/06/10 03:35:54;;;;;;;0.60;0.10;;;15.50;1.00;;;;;;5052653;28;20567;-70
2022/06/10 03:38:22;;;;;;;0.60;0.10;;;15.50;1.00;;;;;;5052471;28;20446;-70
2022/06/10 03:40:55;;;;;;;0.60;0.10;;;15.40;1.00;;;;;;5052591;28;20454;-71
2022/06/10 03:43:34;;;;;;;0.60;0.10;;;15.40;1.00;;;;;;5052695;28;20470;-71
2022/06/10 03:46:05;;;;;;;0.60;0.10;;;15.40;1.00;;;;;;5052439;28;20485;-70
2022/06/10 03:48:36;;;;;;;0.70;0.30;;;15.40;1.00;;;;;;5053029;28;20429;-69
2022/06/10 03:51:07;;;;;;;0.60;0.10;;;15.30;1.00;;;;;;5052850;28;20537;-71
2022/06/10 03:53:35;;;;;;;0.60;0.20;;;15.30;1.00;;;;;;5052514;28;20469;-69
2022/06/10 03:56:09;;;;;;;0.60;0.10;;;;;;;;;;5051983;28;20438;-68
2022/06/10 03:58:37;;;;;;;0.60;0.10;;;;;;;;;;5052462;28;20527;-70
2022/06/10 04:01:06;;;;;;;0.60;0.10;;;15.20;1.00;;;;;;5052468;28;20449;-73
2022/06/10 04:03:34;;;;;;;0.60;0.10;;;15.20;1.00;;;;;;5052272;28;20467;-72
2022/06/10 04:06:02;;;;;;;0.60;0.20;;;15.20;1.00;;;;;;5051959;28;20455;-71
2022/06/10 04:08:51;;;;;;;0.60;0.10;;;15.20;1.00;;;;;;5052902;28;20450;-69
2022/06/10 04:11:19;;;;;;;0.60;0.10;;;15.30;1.00;;;;;;5053242;28;20465;-72
2022/06/10 04:13:47;;;;;;;0.60;0.10;;;15.30;1.00;;;;;;5052492;28;20497;-70
2022/06/10 04:16:16;;;;;;;0.60;0.10;;;;;;;;;;5051909;28;20443;-70
2022/06/10 04:18:44;;;;;;;0.60;0.10;;;15.30;1.00;;;;;;5051565;28;20908;-70
2022/06/10 04:21:12;;;;;;;0.60;0.10;;;15.30;1.00;;;;;;5042077;28;20461;-70
2022/06/10 04:23:40;;;;;;;0.60;0.10;;;15.40;1.00;;;;;;5051941;28;20474;-70
2022/06/10 04:26:10;;;;;;;0.60;0.10;;;15.40;1.00;;;;;;5052552;28;20465;-70
2022/06/10 04:28:38;;;;;;;0.60;0.10;;;15.40;1.00;;;;;;5052171;28;20454;-70
2022/06/10 04:31:06;;;;;;;0.60;0.10;;;15.50;1.00;;;;;;5050729;28;20453;-71
2022/06/10 04:33:35;;;;;;;0.60;0.10;;;15.60;1.00;;;;;;5042512;28;20465;-71
2022/06/10 04:36:04;;;;;;;0.60;0.10;;;15.60;1.00;;;;;;5050181;28;20450;-71
2022/06/10 04:38:32;;;;;;;0.60;0.10;;;15.70;1.00;;;;;;5049928;28;20528;-71
2022/06/10 04:41:00;;;;;;;0.60;0.10;;;15.70;1.00;;;;;;5040192;28;20883;-73
2022/06/10 04:43:29;;;;;;;0.60;0.10;;;15.70;1.00;;;;;;5051514;28;20477;-71
2022/06/10 04:46:01;;;;;;;0.60;0.10;;;15.70;1.00;;;;;;5052078;28;20809;-71
2022/06/10 04:48:29;;;;;;;0.60;0.10;;;15.80;1.00;;;;;;5040872;28;20481;-73
2022/06/10 04:50:57;;;;;;;0.60;0.10;;;15.90;1.00;;;;;;5051712;28;20453;-71
2022/06/10 04:53:25;;;;;;;0.60;0.10;;;15.80;1.00;;;;;;5051453;28;20475;-71
2022/06/10 04:55:53;;;;;;;0.60;0.20;;;15.80;1.00;;;;;;5051035;28;20458;-72
2022/06/10 04:58:21;;;;;;;0.60;0.10;;;15.90;1.00;;;;;;5051255;28;21044;-70
2022/06/10 05:00:51;;;;;;;0.60;0.20;;;15.90;1.00;;;;;;5051485;28;20812;-71
2022/06/10 05:03:19;;;;;;;0.60;0.10;;;15.90;1.00;;;;;;5043088;28;20894;-71
2022/06/10 05:05:47;;;;;;;0.60;0.10;;;16.00;1.00;;;;;;5051646;28;20944;-71
2022/06/10 05:08:18;;;;;;;0.60;0.20;;;16.00;1.00;;;;;;5040020;28;20485;-71
2022/06/10 05:10:47;;;;;;;0.60;0.20;;;15.90;1.00;;;;;;5053404;28;20450;-70
2022/06/10 05:13:16;;;;;;;0.60;0.20;;;15.90;1.00;;;;;;5051964;28;21013;-71
2022/06/10 05:15:44;;;;;;;0.60;0.10;;;15.90;1.00;;;;;;5044574;28;20454;-70
2022/06/10 05:18:15;;;;;;;0.60;0.10;;;16.00;1.00;;;;;;5038160;28;20448;-70
2022/06/10 05:20:45;;;;;;;0.60;0.10;;;16.00;1.00;;;;;;5051131;28;20453;-72
2022/06/10 05:23:15;;;;;;;0.60;0.10;;;16.00;1.00;;;;;;5051523;28;20528;-69
2022/06/10 05:25:43;;;;;;;0.60;0.10;;;16.00;1.00;;;;;;5052455;28;20442;-71
2022/06/10 05:28:13;;;;;;;0.60;0.10;;;16.10;1.00;;;;;;5039780;28;20481;-70
2022/06/10 05:30:41;;;;;;;0.60;0.10;;;16.10;1.00;;;;;;5051527;28;20449;-70
2022/06/10 05:33:11;;;;;;;0.60;0.20;;;16.20;1.00;;;;;;5051243;28;20524;-73
2022/06/10 05:35:44;;;;;;;0.60;0.10;;;16.30;1.00;;;;;;5050596;28;20450;-71
2022/06/10 05:38:16;;;;;;;0.60;0.10;;;16.30;1.00;;;;;;5050969;28;20440;-73
2022/06/10 05:40:46;;;;;;;0.60;0.10;;;16.30;1.00;;;;;;5051140;28;20445;-72
2022/06/10 05:43:14;;;;;;;0.60;0.10;;;;;;;;;;5049841;28;20470;-72
2022/06/10 05:45:43;;;;;;;0.60;0.10;;;16.50;1.00;;;;;;5051376;28;20452;-72
2022/06/10 05:48:14;;;;;;;0.60;0.10;;;16.60;1.00;;;;;;5053878;28;20492;-72
2022/06/10 05:50:44;;;;;;;0.60;0.10;;;16.60;1.00;;;;;;5048315;28;20458;-73
2022/06/10 05:53:15;;;;;;;0.60;0.10;;;16.70;1.00;;;;;;5049296;28;20961;-71
2022/06/10 05:55:43;;;;;;;0.60;0.13;;;16.70;1.00;;;;;;5053617;28;20967;-71
2022/06/10 05:58:13;;;;;;;0.60;0.10;;;16.70;1.00;;;;;;5054014;28;20441;-72
2022/06/10 06:00:41;;;;;;;0.60;0.10;;;16.80;1.00;;;;;;5054477;28;20450;-71
2022/06/10 06:03:09;;;;;;;0.60;0.20;;;16.90;1.00;;;;;;5054408;28;20468;-72
2022/06/10 06:05:37;;;;;;;0.60;0.10;;;16.90;1.00;;;;;;5054511;28;20452;-72
2022/06/10 06:08:07;;;;;;;0.60;0.10;;;;;;;;;;5053734;28;20470;-71
2022/06/10 06:10:35;;;;;;;0.60;0.10;;;17.10;1.00;;;;;;5054253;28;20451;-71
2022/06/10 06:13:03;;;;;;;0.60;0.10;;;17.20;1.00;;;;;;5053900;28;20524;-71
2022/06/10 06:15:32;;;;;;;0.60;0.10;;;17.20;1.00;;;;;;5053193;28;20471;-70
2022/06/10 06:18:00;;;;;;;0.60;0.10;;;17.20;1.00;;;;;;5054019;28;20533;-70
2022/06/10 06:20:28;;;;;;;0.60;0.10;;;17.30;1.00;;;;;;5054186;28;20466;-70
2022/06/10 06:22:56;;;;;;;0.60;0.10;;;17.50;1.00;;;;;;5053944;28;20548;-70
2022/06/10 06:25:25;;;;;;;0.60;0.20;;;17.50;1.00;;;;;;5045254;28;20916;-72
2022/06/10 06:27:53;;;;;;;0.60;0.10;;;17.60;1.00;;;;;;5040990;28;20479;-71
2022/06/10 06:30:26;;;;;;;0.60;0.13;;;17.60;1.00;;;;;;5035602;28;20449;-72
2022/06/10 06:32:58;;;;;;;0.60;0.10;;;17.80;1.00;;;;;;5054961;28;20560;-71
2022/06/10 06:35:26;;;;;;;0.60;0.10;;;17.80;1.00;;;;;;5053085;28;21034;-70
2022/06/10 06:37:54;;;;;;;0.60;0.13;;;17.80;1.00;;;;;;5053672;28;20469;-70
2022/06/10 06:40:23;;;;;;;0.60;0.10;;;17.90;1.00;;;;;;5055405;28;20929;-72
2022/06/10 06:42:52;;;;;;;0.60;0.10;;;18.00;1.00;;;;;;5055130;28;20446;-71
2022/06/10 06:45:21;;;;;;;0.60;0.10;;;18.00;1.00;;;;;;5075050;23;20517;-73
2022/06/10 06:47:54;;;;;;;0.60;0.10;;;18.00;1.00;;;;;;5041267;28;20486;-72
2022/06/10 06:50:25;;;;;;;0.60;0.13;;;18.00;1.00;;;;;;5053102;28;20445;-72
2022/06/10 06:52:54;;;;;;;0.60;0.10;;;18.20;1.00;;;;;;5042203;28;20938;-74
2022/06/10 06:55:30;;;;;;;0.70;0.33;;;18.20;1.00;;;;;;5037374;28;20459;-74
2022/06/10 06:57:59;;;;;;;0.70;0.50;;;18.20;1.00;;;;;;5054068;28;20445;-74
2022/06/10 07:00:27;;;;;;;0.60;0.10;;;18.20;1.00;;;;;;5056050;28;20949;-74
2022/06/10 07:02:56;;;;;;;0.60;0.20;;;18.20;1.00;;;;;;5055740;28;20453;-74
2022/06/10 07:05:24;;;;;;;0.60;0.10;;;18.30;1.00;;;;;;5055031;28;20546;-72
2022/06/10 07:07:52;;;;;;;0.60;0.10;;;18.30;1.00;;;;;;5052969;28;20500;-72
2022/06/10 07:10:24;;;;;;;0.60;0.10;;;18.40;1.00;;;;;;5053345;28;20453;-72
2022/06/10 07:12:52;;;;;;;0.60;0.10;;;18.40;1.00;;;;;;5059110;28;20457;-73
2022/06/10 07:15:22;;;;;;;0.60;0.10;;;18.50;1.00;;;;;;5055832;28;20549;-74
2022/06/10 07:17:50;;;;;;;0.60;0.10;;;18.50;1.00;;;;;;5051663;28;20437;-72
2022/06/10 07:20:22;;;;;;;0.60;0.10;;;18.50;1.00;;;;;;5073932;28;20446;-72
2022/06/10 07:22:50;;;;;;;0.60;0.10;;;18.50;1.00;;;;;;5073545;28;20442;-73
2022/06/10 07:25:18;;;;;;;0.60;0.10;;;18.60;1.00;;;;;;5063676;28;20477;-73
2022/06/10 07:27:47;;;;;;;0.60;0.10;;;18.60;1.00;;;;;;5061778;28;20444;-72
2022/06/10 07:30:17;;;;;;;0.60;0.10;;;18.70;1.00;;;;;;5064305;28;20445;-72
2022/06/10 07:32:47;;;;;;;0.60;0.20;;;18.80;1.00;;;;;;5072293;28;20452;-73
2022/06/10 07:35:17;;;;;;;0.60;0.10;;;18.80;1.00;;;;;;5072692;28;20480;-73
2022/06/10 07:37:45;;;;;;;0.60;0.20;;;18.90;1.00;;;;;;5072698;28;20931;-73
2022/06/10 07:43:20;;;;;;;0.60;0.10;;;19.00;1.00;;;;;;5050762;28;20446;-73
2022/06/10 07:45:49;;;;;;;0.60;0.10;;;18.90;99.90;;;;;;5055062;28;20475;-70
2022/06/10 07:48:19;;;;;;;0.60;0.10;;;18.90;1.00;;;;;;5053038;28;20474;-69
2022/06/10 07:50:48;;;;;;;0.60;0.20;;;19.00;1.00;;;;;;5056050;28;20468;-70
2022/06/10 07:53:17;;;;;;;0.60;0.10;;;19.10;1.00;;;;;;5057224;28;20937;-69
2022/06/10 07:55:46;;;;;;;0.60;0.10;;;19.20;1.00;;;;;;5051929;28;20501;-69
2022/06/10 07:58:16;;;;;;;0.60;0.10;;;19.30;1.00;;;;;;5053135;28;20453;-70
2022/06/10 08:00:45;;;;;;;0.60;0.10;;;19.30;99.90;;;;;;5052958;28;20466;-69
2022/06/10 08:03:13;;;;;;;0.60;0.10;;;19.30;99.90;;;;;;5060612;28;20549;-69
2022/06/10 08:05:44;;;;;;;1.90;1.80;;;19.40;99.90;;;;;;5062177;28;20497;-70
2022/06/10 08:08:14;;;;;;;0.60;0.20;;;19.40;99.90;;;;;;5070724;28;22484;-69
2022/06/10 08:10:42;;;;;;;0.60;0.10;;;19.50;99.90;;;;;;5071707;28;20442;-70
2022/06/10 08:13:11;;;;;;;0.60;0.10;;;19.60;99.90;;;;;;5065040;28;20480;-70
2022/06/10 08:15:40;;;;;;;0.60;0.10;;;19.90;99.90;;;;;;5071113;28;20465;-69
2022/06/10 08:18:10;;;;;;;0.60;0.20;;;20.00;99.90;;;;;;5071906;28;20468;-67
2022/06/10 08:23:27;;;;;;;0.60;0.10;;;20.20;99.90;;;;;;5051812;28;20438;-68
2022/06/10 08:25:56;;;;;;;0.60;0.20;;;20.50;99.90;;;;;;5055788;28;20474;-67
2022/06/10 08:28:25;;;;;;;0.60;0.10;;;20.50;99.90;;;;;;5054509;28;20492;-67
2022/06/10 08:30:54;;;;;;;0.60;0.20;;;20.60;99.90;;;;;;5049029;28;20457;-68
2022/06/10 08:33:21;;;;;;;0.60;0.10;;;20.70;99.90;;;;;;5052268;28;20469;-68
2022/06/10 08:35:50;;;;;;;0.60;0.10;;;20.60;99.90;;;;;;5060482;28;20533;-69
2022/06/10 08:38:18;;;;;;;0.63;0.17;;;20.70;99.90;;;;;;5072674;28;20513;-69
2022/06/10 08:40:55;;;;;;;0.60;0.10;;;20.70;99.90;;;;;;5071985;28;21025;-68
2022/06/10 08:43:36;;;;;;;0.60;0.10;;;21.80;99.90;;;;;;5052955;28;20504;-70
2022/06/10 08:46:17;;;;;;;0.70;0.40;;;20.90;99.90;;;;;;5056863;28;20478;-69
2022/06/10 08:49:02;;;;;;;0.60;0.10;;;20.90;99.90;;;;;;5071755;28;20595;-71
2022/06/10 08:51:36;;;;;;;0.60;0.10;;;21.00;99.90;;;;;;5071575;28;20466;-68
2022/06/10 08:54:14;;;;;;;0.60;0.10;;;21.10;99.90;;;;;;5071677;28;20450;-71
2022/06/10 08:56:45;;;;;;;0.60;0.20;;;21.20;99.90;;;;;;5071505;28;20473;-70
2022/06/10 08:59:26;;;;;;;0.60;0.10;;;21.20;99.90;;;;;;5071671;28;20442;-71
2022/06/10 09:02:04;;;;;;;0.60;0.20;;;21.20;99.90;;;;;;5066066;28;20459;-71
2022/06/10 09:04:42;;;;;;;0.60;0.10;;;21.30;99.90;;;;;;5053416;28;20446;-70
2022/06/10 09:07:15;;;;;;;1.40;1.07;;;21.30;99.90;;;;;;5052106;28;20482;-70
2022/06/10 09:09:45;;;;;;;0.60;0.10;;;21.30;99.90;;;;;;5052666;28;20474;-70
2022/06/10 09:12:21;;;;;;;0.60;0.20;;;21.30;99.90;;;;;;5051806;28;20438;-70
2022/06/10 09:14:53;;;;;;;0.60;0.10;;;21.40;99.90;;;;;;5051852;28;20477;-70
2022/06/10 09:17:27;;;;;;;0.60;0.10;;;21.40;99.90;;;;;;5055489;28;20441;-70
2022/06/10 09:20:03;;;;;;;0.60;0.10;;;21.40;99.90;;;;;;5059105;28;20437;-70
2022/06/10 09:22:38;;;;;;;0.60;0.20;;;21.40;99.90;;;;;;5066211;28;20630;-70
2022/06/10 09:25:11;;;;;;;0.60;0.20;;;21.60;99.90;;;;;;5080561;28;20834;-69
2022/06/10 09:27:44;;;;;;;0.70;0.10;;;21.60;99.90;;;;;;5067388;28;20434;-71
2022/06/10 09:30:17;;;;;;;0.60;0.20;;;21.60;99.90;;;;;;5059056;28;20524;-71
2022/06/10 09:32:53;;;;;;;0.60;0.10;;;21.50;99.90;;;;;;5056002;28;20443;-71
2022/06/10 09:35:29;;;;;;;0.60;0.10;;;21.50;99.90;;;;;;5056027;28;20473;-71
2022/06/10 09:38:03;;;;;;;0.60;0.10;;;21.50;99.90;;;;;;5062413;28;20430;-71
2022/06/10 09:40:38;;;;;;;0.60;0.10;;;21.60;99.90;;;;;;5062600;28;20453;-71
2022/06/10 09:43:27;;;;;;;0.60;0.20;;;21.60;99.90;;;;;;5062525;28;20442;-71
2022/06/10 09:46:04;;;;;;;0.67;0.10;;;21.80;99.90;;;;;;5062147;28;20472;-70
2022/06/10 09:48:54;;;;;;;0.70;0.10;;;21.80;99.90;;;;;;5064435;28;20433;-70
2022/06/10 09:51:30;;;;;;;0.70;0.20;;;21.90;99.90;;;;;;5064395;28;20439;-70
2022/06/10 09:54:19;;;;;;;0.90;0.30;;;22.00;99.90;;;;;;5054837;28;20437;-69
2022/06/10 09:57:08;;;;;;;0.70;0.10;;;21.90;99.90;;;;;;5055125;28;20830;-71
2022/06/10 09:59:42;;;;;;;0.70;0.10;;;21.80;99.90;;;;;;5055031;28;20445;-70
2022/06/10 10:02:22;;;;;;;0.70;0.30;;;22.00;99.90;;;;;;5054198;28;20541;-69
2022/06/10 10:05:03;;;;;;;0.70;0.23;;;22.20;99.90;;;;;;5066550;28;20566;-70
2022/06/10 10:07:40;;;;;;;0.70;0.20;;;22.20;99.90;;;;;;5061406;28;20445;-69
2022/06/10 10:10:19;;;;;;;0.70;0.10;;;22.00;99.90;;;;;;5073438;28;20495;-69
2022/06/10 10:13:03;;;;;;;0.70;0.20;;;22.00;99.90;;;;;;5074991;28;20449;-72
2022/06/10 10:15:40;;;;;;;0.70;0.10;;;22.10;99.90;;;;;;5061022;28;20461;-70
2022/06/10 10:18:34;;;;;;;0.70;0.20;;;22.10;99.90;;;;;;5060110;28;20835;-71
2022/06/10 10:21:11;;;;;;;0.70;0.10;;;21.90;99.90;;;;;;5059382;28;20848;-71
2022/06/10 10:23:42;;;;;;;0.70;0.10;;;21.80;99.90;;;;;;5056171;28;20434;-69
2022/06/10 10:26:20;;;;;;;0.70;0.10;;;22.00;99.90;;;;;;5060167;28;20478;-71
2022/06/10 10:28:52;;;;;;;0.70;0.20;;;22.70;99.90;;;;;;5062756;28;20446;-71
2022/06/10 10:31:24;;;;;;;0.70;0.20;;;22.50;99.90;;;;;;5058809;28;20470;-70
2022/06/10 10:33:58;;;;;;;0.70;0.20;;;22.60;99.90;;;;;;5062264;28;20449;-70
2022/06/10 10:36:36;;;;;;;0.70;0.10;;;22.60;99.90;;;;;;5061962;28;20492;-71
2022/06/10 10:39:16;;;;;;;0.70;0.10;;;22.70;99.90;;;;;;5056928;28;20446;-71
2022/06/10 10:41:48;;;;;;;0.70;0.20;;;22.80;99.90;;;;;;5056182;28;20443;-70
2022/06/10 10:44:28;;;;;;;0.70;0.20;;;23.00;99.90;;;;;;5055462;28;20474;-70
2022/06/10 10:47:14;;;;;;;0.90;0.57;;;23.20;99.90;;;;;;5065485;28;20461;-69
2022/06/10 10:49:47;;;;;;;0.70;0.20;;;23.10;99.90;;;;;;5056039;28;20557;-70
2022/06/10 10:52:20;;;;;;;0.70;0.10;;;23.10;99.90;;;;;;5054085;28;20438;-70
2022/06/10 10:54:50;;;;;;;0.70;0.20;;;23.20;99.90;;;;;;5058670;28;20450;-71
2022/06/10 10:57:29;;;;;;;0.97;0.57;;;23.20;99.90;;;;;;5062734;28;20438;-69
2022/06/10 11:00:28;;;;;;;0.70;0.10;;;23.40;99.90;;;;;;5067646;28;20940;-71
2022/06/10 11:03:01;;;;;;;0.70;0.20;;;23.50;99.90;;;;;;5054291;28;20525;-70
2022/06/10 11:05:35;;;;;;;0.70;0.20;;;23.60;99.90;;;;;;5057946;28;20488;-70
2022/06/10 11:08:21;;;;;;;0.70;0.20;;;23.60;99.90;;;;;;5065770;28;20448;-69
2022/06/10 11:11:09;;;;;;;0.70;0.10;;;23.70;99.90;;;;;;5049325;28;20478;-71
2022/06/10 11:13:46;;;;;;;0.70;0.10;;;23.70;99.90;;;;;;5054244;28;20526;-70
2022/06/10 11:16:36;;;;;;;2.40;0.87;;;26.80;99.90;;;;;;5052665;28;20470;-71
2022/06/10 11:19:13;;;;;;;0.70;0.13;;;23.80;99.90;;;;;;5054120;28;20458;-68
2022/06/10 11:21:52;;;;;;;0.70;0.10;;;23.70;99.90;;;;;;5065026;28;20430;-69
2022/06/10 11:24:30;;;;;;;0.70;0.20;;;23.70;99.90;;;;;;5073067;28;20533;-69
2022/06/10 11:27:00;;;;;;;0.70;0.10;;;23.60;99.90;;;;;;5068103;28;20449;-72
2022/06/10 11:29:29;;;;;;;0.70;0.10;;;23.70;99.90;;;;;;5058045;28;20450;-70
2022/06/10 11:32:06;;;;;;;0.70;0.20;;;23.70;99.90;;;;;;5063935;28;20434;-71
2022/06/10 11:34:40;;;;;;;0.70;0.10;;;23.50;99.90;;;;;;5057659;28;20449;-69
2022/06/10 11:37:22;;;;;;;0.70;0.20;;;23.40;99.90;;;;;;5052351;28;20446;-69
2022/06/10 11:39:59;;;;;;;0.70;0.10;;;23.40;99.90;;;;;;5053166;28;20438;-70
2022/06/10 11:42:38;;;;;;;0.73;0.23;;;23.50;99.90;;;;;;5052518;28;20438;-70
2022/06/10 11:45:16;;;;;;;0.70;0.20;;;23.70;99.90;;;;;;5052999;28;20458;-71
2022/06/10 11:47:49;;;;;;;0.70;0.10;;;23.80;99.90;;;;;;5057759;28;20454;-70
2022/06/10 11:50:23;;;;;;;0.70;0.10;;;23.90;99.90;;;;;;5053915;28;20574;-70
2022/06/10 11:52:55;;;;;;;1.20;0.93;;;23.90;99.90;;;;;;5050279;28;20453;-71
2022/06/10 11:55:27;;;;;;;0.70;0.20;;;24.10;99.90;;;;;;5048891;28;20462;-70
2022/06/10 12:00:48;;;;;;;0.70;0.20;;;24.20;99.90;;;;;;5056830;28;20509;-69
2022/06/10 12:03:24;;;;;;;0.70;0.10;;;24.10;99.90;;;;;;5066682;28;20940;-70
2022/06/10 12:05:59;;;;;;;0.70;0.10;;;24.00;99.90;;;;;;5051266;28;20965;-68
2022/06/10 12:08:40;;;;;;;0.70;0.13;;;24.00;99.90;;;;;;5049940;28;20775;-69
2022/06/10 12:11:21;;;;;;;0.70;0.20;;;24.20;99.90;;;;;;5052690;28;20854;-69
2022/06/10 12:14:02;;;;;;;0.80;0.40;;;24.20;99.90;;;;;;5052813;28;20450;-69
2022/06/10 12:16:36;;;;;;;0.70;0.20;;;24.30;99.90;;;;;;5056865;28;20516;-70
2022/06/10 12:19:11;;;;;;;0.70;0.10;;;24.30;99.90;;;;;;5056408;28;20488;-68
2022/06/10 12:21:42;;;;;;;0.70;0.10;;;24.00;99.90;;;;;;5063380;28;20438;-69
2022/06/10 12:24:14;;;;;;;0.70;0.10;;;24.00;99.90;;;;;;5072821;28;20536;-69
2022/06/10 12:26:52;;;;;;;0.70;0.10;;;23.90;99.90;;;;;;5058533;28;20598;-68
2022/06/10 12:29:28;;;;;;;0.70;0.20;;;24.00;99.90;;;;;;5069883;28;20447;-69
2022/06/10 12:32:05;;;;;;;0.70;0.20;;;24.10;99.90;;;;;;5072245;28;20469;-69
2022/06/10 12:34:54;;;;;;;0.70;0.20;;;24.00;99.90;;;;;;5071847;28;20437;-68
2022/06/10 12:37:29;;;;;;;0.70;0.10;;;24.10;99.90;;;;;;5070126;28;20761;-68
2022/06/10 12:40:02;;;;;;;0.70;0.20;;;24.10;99.90;;;;;;5071775;28;20449;-69
2022/06/10 12:42:42;;;;;;;0.70;0.20;;;24.30;99.90;;;;;;5059294;28;20439;-70
2022/06/10 12:45:19;;;;;;;0.70;0.10;;;24.50;99.90;;;;;;5074853;23;20465;-73
2022/06/10 12:47:52;;;;;;;1.03;0.60;;;24.60;99.90;;;;;;5051997;28;20525;-75
2022/06/10 12:50:23;;;;;;;0.70;0.30;;;24.60;99.90;;;;;;5052387;28;20448;-74
2022/06/10 12:53:06;;;;;;;0.70;0.20;;;24.60;99.90;;;;;;5051985;28;20450;-74
2022/06/10 12:55:45;;;;;;;0.70;0.20;;;24.70;99.90;;;;;;5051055;28;20992;-74
2022/06/10 12:58:45;;;;;;;0.70;0.10;;;24.70;99.90;;;;;;5056080;28;20529;-74
2022/06/10 13:01:21;;;;;;;0.70;0.10;;;24.80;99.90;;;;;;5055923;28;20439;-74
2022/06/10 13:03:51;;;;;;;0.77;0.23;;;25.00;99.90;;;;;;5056633;28;20442;-75
2022/06/10 13:06:48;;;;;;;0.70;0.20;;;25.00;99.90;;;;;;5055018;28;20466;-74
2022/06/10 13:09:26;;;;;;;0.70;0.20;;;25.00;99.90;;;;;;5054619;28;20549;-75
2022/06/10 13:11:56;;;;;;;0.70;0.20;;;25.10;99.90;;;;;;5055956;28;20484;-74
2022/06/10 13:14:44;;;;;;;1.43;0.70;;;25.10;99.90;;;;;;5055912;28;20469;-74
2022/06/10 13:17:22;;;;;;;0.70;0.10;;;25.40;99.90;;;;;;5055797;28;20462;-75
2022/06/10 13:20:19;;;;;;;0.70;0.20;;;25.40;99.90;;;;;;5048513;28;20442;-75
2022/06/10 13:23:23;;;;;;;0.70;0.10;;;25.60;99.90;;;;;;5032973;28;20828;-76
2022/06/10 13:26:15;;;;;;;1.30;0.60;;;25.80;99.90;;;;;;5055625;28;20492;-74
2022/06/10 13:28:46;;;;;;;0.70;0.40;;;25.40;99.90;;;;;;5055724;28;20518;-76
2022/06/10 13:31:20;;;;;;;3.70;0.63;;;25.40;99.90;;;;;;5055205;28;20478;-76
2022/06/10 13:33:59;;;;;;;0.70;0.10;;;25.40;99.90;;;;;;5054816;28;20627;-76
2022/06/10 13:36:32;;;;;;;0.90;0.20;;;25.50;99.90;;;;;;5054696;28;20509;-76
2022/06/10 13:39:05;;;;;;;0.70;0.30;;;25.50;99.90;;;;;;5055083;28;20808;-75
2022/06/10 13:41:52;;;;;;;0.70;0.10;;;25.50;99.90;;;;;;5054818;28;20446;-76